Time;durP1;ratioP1;P1;durP2;ratioP2;P2;SDS_P1;SDS_P2;PMS_P1;PMS_P2;Temp;Humidity;BMP_temperature;BMP_pressure;BME280_temperature;BME280_humidity;BME280_pressure;Samples;Min_cycle;Max_cycle;Signal;HPM_P1;HPM_P2
2022/10/23 00:00:56;;;;;;;12.23;8.03;;;14.30;1.00;;;;;;6220950;23;20419;-82
2022/10/23 00:03:27;;;;;;;13.30;7.53;;;14.30;1.00;;;;;;6219689;23;20439;-79
2022/10/23 00:05:56;;;;;;;15.10;7.83;;;14.30;1.00;;;;;;6225705;22;20399;-80
2022/10/23 00:08:26;;;;;;;13.70;7.83;;;14.30;1.00;;;;;;6215732;23;20384;-83
2022/10/23 00:10:58;;;;;;;14.17;8.00;;;14.20;1.00;;;;;;6223072;23;20385;-80
2022/10/23 00:13:26;;;;;;;12.83;8.97;;;14.20;1.00;;;;;;6221462;23;20455;-83
2022/10/23 00:15:56;;;;;;;14.43;8.70;;;14.10;1.00;;;;;;6216547;23;20408;-81
2022/10/23 00:18:26;;;;;;;18.87;11.80;;;14.10;1.00;;;;;;6215921;23;20435;-80
2022/10/23 00:20:54;;;;;;;16.73;9.13;;;14.10;1.00;;;;;;6222513;23;20382;-82
2022/10/23 00:23:25;;;;;;;15.33;9.47;;;14.10;1.00;;;;;;6221339;23;20443;-84
2022/10/23 00:26:06;;;;;;;15.30;8.63;;;14.00;1.00;;;;;;6216949;23;20400;-83
2022/10/23 00:28:35;;;;;;;17.07;8.60;;;14.00;1.00;;;;;;6218429;23;20443;-84
2022/10/23 00:31:06;;;;;;;13.80;8.70;;;13.90;1.00;;;;;;6222878;23;20400;-83
2022/10/23 00:33:37;;;;;;;14.73;8.50;;;13.80;1.00;;;;;;6216997;23;20427;-82
2022/10/23 00:36:08;;;;;;;15.60;8.50;;;13.80;1.00;;;;;;6214044;23;20424;-81
2022/10/23 00:38:39;;;;;;;12.80;8.27;;;13.80;1.00;;;;;;6217192;23;20463;-80
2022/10/23 00:41:09;;;;;;;16.30;9.53;;;13.80;1.00;;;;;;6223824;23;20426;-81
2022/10/23 00:43:56;;;;;;;16.90;8.97;;;13.80;1.00;;;;;;6217826;23;20507;-81
2022/10/23 00:46:26;;;;;;;15.10;10.67;;;13.80;1.00;;;;;;6216841;23;20483;-82
2022/10/23 00:48:58;;;;;;;12.87;8.60;;;13.90;1.00;;;;;;6216277;23;20392;-82
2022/10/23 00:51:46;;;;;;;14.20;9.00;;;14.00;1.00;;;;;;6215202;23;20504;-82
2022/10/23 00:54:17;;;;;;;17.17;9.50;;;14.00;1.00;;;;;;6214434;23;20455;-80
2022/10/23 00:56:49;;;;;;;16.07;9.53;;;14.00;1.00;;;;;;6218572;23;20387;-80
2022/10/23 00:59:16;;;;;;;15.20;8.70;;;14.10;1.00;;;;;;6219269;23;20801;-81
2022/10/23 01:01:46;;;;;;;16.27;8.60;;;14.20;1.00;;;;;;6217721;23;20432;-80
2022/10/23 01:04:17;;;;;;;15.40;9.00;;;14.20;1.00;;;;;;6210924;23;20507;-80
2022/10/23 01:07:03;;;;;;;15.07;8.77;;;14.30;1.00;;;;;;6190765;23;20380;-83
2022/10/23 01:09:39;;;;;;;20.17;9.70;;;14.30;1.00;;;;;;6232432;23;20505;-81
2022/10/23 01:12:17;;;;;;;13.87;8.40;;;14.30;1.00;;;;;;6214377;23;21271;-82
2022/10/23 01:14:59;;;;;;;14.93;9.20;;;14.30;1.00;;;;;;6216085;23;20407;-82
2022/10/23 01:17:34;;;;;;;13.20;8.70;;;14.40;1.00;;;;;;6218123;23;20460;-82
2022/10/23 01:20:12;;;;;;;13.97;8.53;;;14.40;1.00;;;;;;6217663;23;20466;-82
2022/10/23 01:22:59;;;;;;;14.90;9.83;;;14.40;1.00;;;;;;6215144;23;20414;-82
2022/10/23 01:25:45;;;;;;;16.47;9.40;;;14.30;1.00;;;;;;6212162;23;20441;-82
2022/10/23 01:28:21;;;;;;;13.70;8.60;;;14.30;1.00;;;;;;6210584;23;20507;-81
2022/10/23 01:30:49;;;;;;;14.13;8.40;;;14.20;1.00;;;;;;6214573;23;20698;-81
2022/10/23 01:33:35;;;;;;;13.50;8.87;;;14.20;1.00;;;;;;6216141;23;20836;-81
2022/10/23 01:36:16;;;;;;;14.20;9.17;;;14.10;1.00;;;;;;6209108;23;20407;-81
2022/10/23 01:38:56;;;;;;;14.20;9.20;;;14.00;1.00;;;;;;6214970;23;20392;-79
2022/10/23 01:41:29;;;;;;;14.53;9.70;;;14.00;1.00;;;;;;6213054;23;20499;-82
2022/10/23 01:44:15;;;;;;;13.83;9.00;;;14.00;1.00;;;;;;6202622;23;20423;-82
2022/10/23 01:46:57;;;;;;;14.60;8.40;;;13.90;1.00;;;;;;6225290;23;20413;-80
2022/10/23 01:49:25;;;;;;;11.87;8.10;;;14.00;1.00;;;;;;6214901;23;20441;-85
2022/10/23 01:51:57;;;;;;;13.60;8.03;;;13.90;1.00;;;;;;6216378;23;20420;-83
2022/10/23 01:54:29;;;;;;;15.67;9.00;;;13.90;1.00;;;;;;6216292;23;20424;-79
2022/10/23 01:57:00;;;;;;;15.03;9.93;;;13.90;1.00;;;;;;6198581;23;20424;-82
2022/10/23 01:59:36;;;;;;;12.67;8.70;;;13.90;1.00;;;;;;6212018;23;20423;-80
2022/10/23 02:02:10;;;;;;;15.33;8.63;;;13.90;1.00;;;;;;6219148;23;20447;-81
2022/10/23 02:04:42;;;;;;;14.47;8.40;;;13.90;1.00;;;;;;6213399;23;20430;-81
2022/10/23 02:07:09;;;;;;;12.07;8.20;;;13.80;1.00;;;;;;6206550;23;20436;-81
2022/10/23 02:09:36;;;;;;;14.53;8.60;;;13.80;1.00;;;;;;6207753;23;20829;-82
2022/10/23 02:12:08;;;;;;;16.40;11.00;;;13.70;1.00;;;;;;6214289;22;20991;-81
2022/10/23 02:14:46;;;;;;;13.97;9.67;;;13.60;1.00;;;;;;6209573;23;21428;-82
2022/10/23 02:17:21;;;;;;;15.17;9.10;;;13.60;1.00;;;;;;6209445;23;20432;-81
2022/10/23 02:19:57;;;;;;;12.33;9.27;;;13.60;1.00;;;;;;6212729;23;20462;-81
2022/10/23 02:22:29;;;;;;;15.53;9.47;;;13.70;1.00;;;;;;6213591;23;20895;-83
2022/10/23 02:25:02;;;;;;;14.40;9.03;;;13.60;1.00;;;;;;6211017;23;20439;-82
2022/10/23 02:27:36;;;;;;;14.30;9.27;;;13.70;1.00;;;;;;6212704;23;20404;-81
2022/10/23 02:30:07;;;;;;;13.50;8.43;;;13.60;1.00;;;;;;6209665;23;20840;-83
2022/10/23 02:32:35;;;;;;;15.30;8.83;;;13.60;1.00;;;;;;6209302;23;20434;-81
2022/10/23 02:35:08;;;;;;;14.10;9.00;;;13.60;1.00;;;;;;6215481;23;20395;-79
2022/10/23 02:37:36;;;;;;;16.47;9.50;;;13.60;1.00;;;;;;6216753;23;20528;-79
2022/10/23 02:40:09;;;;;;;12.70;9.67;;;13.70;1.00;;;;;;6212679;23;20424;-81
2022/10/23 02:42:50;;;;;;;12.73;8.33;;;13.60;1.00;;;;;;6210074;23;20416;-82
2022/10/23 02:45:36;;;;;;;14.17;9.00;;;13.60;1.00;;;;;;6218332;23;20408;-80
2022/10/23 02:48:17;;;;;;;12.70;8.30;;;13.50;1.00;;;;;;6191945;23;20392;-82
2022/10/23 02:51:08;;;;;;;14.80;9.63;;;13.50;1.00;;;;;;6188889;23;20420;-80
2022/10/23 02:53:56;;;;;;;15.80;8.90;;;13.40;1.00;;;;;;6186171;23;20916;-81
2022/10/23 02:56:36;;;;;;;15.40;9.20;;;13.40;1.00;;;;;;6193116;23;20476;-79
2022/10/23 02:59:10;;;;;;;15.13;9.97;;;13.30;1.00;;;;;;6186565;23;20395;-80
2022/10/23 03:01:51;;;;;;;15.20;10.40;;;13.30;1.00;;;;;;6181372;23;20421;-79
2022/10/23 03:04:22;;;;;;;17.20;9.80;;;13.20;1.00;;;;;;6178964;23;20905;-81
2022/10/23 03:06:51;;;;;;;14.63;9.57;;;13.20;1.00;;;;;;6189051;23;20420;-81
2022/10/23 03:09:18;;;;;;;16.20;11.17;;;13.10;1.00;;;;;;6189183;23;20474;-81
2022/10/23 03:11:49;;;;;;;15.70;11.07;;;13.10;1.00;;;;;;6185377;23;20397;-81
2022/10/23 03:14:17;;;;;;;13.30;9.47;;;13.10;1.00;;;;;;6178080;23;20417;-80
2022/10/23 03:16:52;;;;;;;20.47;11.97;;;13.00;1.00;;;;;;6182812;23;20457;-82
2022/10/23 03:19:19;;;;;;;14.20;11.00;;;13.00;1.00;;;;;;6186455;23;20442;-82
2022/10/23 03:21:47;;;;;;;17.73;11.60;;;13.00;1.00;;;;;;6188306;23;20423;-82
2022/10/23 03:24:20;;;;;;;17.60;10.80;;;13.00;1.00;;;;;;6184393;23;20461;-82
2022/10/23 03:26:47;;;;;;;16.00;11.20;;;13.00;1.00;;;;;;6186818;23;20398;-83
2022/10/23 03:29:14;;;;;;;18.50;11.50;;;13.10;1.00;;;;;;6189969;23;20444;-82
2022/10/23 03:31:48;;;;;;;31.90;27.70;;;13.10;1.00;;;;;;6186374;23;20512;-83
2022/10/23 03:34:19;;;;;;;16.70;12.60;;;13.00;1.00;;;;;;6176558;23;20396;-80
2022/10/23 03:36:50;;;;;;;17.47;11.83;;;13.00;1.00;;;;;;6188206;23;20500;-81
2022/10/23 03:39:19;;;;;;;15.30;10.73;;;13.00;1.00;;;;;;6193869;23;20574;-82
2022/10/23 03:41:47;;;;;;;17.63;11.17;;;13.00;1.00;;;;;;6174830;23;20508;-82
2022/10/23 03:44:14;;;;;;;17.10;11.77;;;12.90;1.00;;;;;;6184906;23;20414;-80
2022/10/23 03:46:47;;;;;;;15.50;11.00;;;12.90;1.00;;;;;;6186907;23;20421;-79
2022/10/23 03:49:19;;;;;;;17.23;11.17;;;12.80;1.00;;;;;;6198000;23;20430;-83
2022/10/23 03:51:51;;;;;;;18.63;11.10;;;12.70;1.00;;;;;;6196122;23;20387;-82
2022/10/23 03:54:26;;;;;;;15.87;11.53;;;12.70;1.00;;;;;;6190689;23;20757;-83
2022/10/23 03:57:08;;;;;;;17.50;11.33;;;12.60;1.00;;;;;;6185265;23;20389;-81
2022/10/23 03:59:38;;;;;;;16.90;10.77;;;12.60;1.00;;;;;;6191784;23;20468;-83
2022/10/23 04:02:10;;;;;;;16.43;11.80;;;12.50;1.00;;;;;;6191274;23;20406;-81
2022/10/23 04:04:38;;;;;;;16.00;10.90;;;12.50;1.00;;;;;;6184715;23;20506;-80
2022/10/23 04:07:08;;;;;;;21.60;12.50;;;12.50;1.00;;;;;;6186005;23;20409;-83
2022/10/23 04:09:40;;;;;;;19.93;12.63;;;12.50;1.00;;;;;;6176078;23;20409;-82
2022/10/23 04:12:10;;;;;;;16.90;11.70;;;12.40;1.00;;;;;;6175644;23;20421;-82
2022/10/23 04:14:40;;;;;;;15.13;9.80;;;12.40;1.00;;;;;;6185241;23;20899;-81
2022/10/23 04:17:07;;;;;;;20.13;11.73;;;12.50;1.00;;;;;;6183740;23;20430;-81
2022/10/23 04:19:39;;;;;;;18.07;12.90;;;12.40;1.00;;;;;;6186118;23;20434;-80
2022/10/23 04:22:07;;;;;;;19.70;13.40;;;12.30;1.00;;;;;;6190668;23;20389;-79
2022/10/23 04:24:37;;;;;;;22.23;14.90;;;12.20;1.00;;;;;;6186022;23;20838;-80
2022/10/23 04:27:07;;;;;;;24.40;15.10;;;12.10;1.00;;;;;;6184034;23;20506;-79
2022/10/23 04:29:38;;;;;;;18.90;12.43;;;12.10;1.00;;;;;;6180472;23;20416;-80
2022/10/23 04:32:08;;;;;;;23.80;13.77;;;12.00;1.00;;;;;;6192561;23;20411;-81
2022/10/23 04:34:35;;;;;;;18.63;12.67;;;12.00;1.00;;;;;;6187648;23;20455;-82
2022/10/23 04:37:05;;;;;;;21.33;13.57;;;12.00;1.00;;;;;;6180122;23;20452;-79
2022/10/23 04:39:32;;;;;;;22.30;15.57;;;12.00;1.00;;;;;;6152550;23;20440;-81
2022/10/23 04:41:59;;;;;;;25.87;17.30;;;12.00;1.00;;;;;;6194516;23;20420;-80
2022/10/23 04:44:27;;;;;;;23.20;15.50;;;11.90;1.00;;;;;;6188285;23;20407;-80
2022/10/23 04:46:54;;;;;;;28.17;18.63;;;11.90;1.00;;;;;;6163373;23;20424;-81
2022/10/23 04:49:26;;;;;;;31.07;18.30;;;11.80;1.00;;;;;;6167672;23;20509;-80
2022/10/23 04:51:58;;;;;;;31.00;18.03;;;11.80;1.00;;;;;;6173575;23;20425;-81
2022/10/23 04:54:38;;;;;;;29.00;17.47;;;11.70;1.00;;;;;;6186300;23;20436;-81
2022/10/23 04:57:07;;;;;;;30.03;17.87;;;11.60;1.00;;;;;;6185191;23;21281;-80
2022/10/23 04:59:35;;;;;;;25.20;17.97;;;11.60;1.00;;;;;;6183824;23;20410;-80
2022/10/23 05:02:09;;;;;;;24.53;17.00;;;11.60;1.00;;;;;;6184013;23;20435;-82
2022/10/23 05:04:39;;;;;;;20.00;13.53;;;11.50;1.00;;;;;;6182011;23;20513;-81
2022/10/23 05:07:07;;;;;;;24.30;13.33;;;11.50;1.00;;;;;;6171678;23;20384;-82
2022/10/23 05:09:38;;;;;;;20.67;14.27;;;11.50;1.00;;;;;;6192118;23;20510;-82
2022/10/23 05:12:08;;;;;;;17.80;12.17;;;11.50;1.00;;;;;;6182547;23;20399;-81
2022/10/23 05:14:37;;;;;;;19.53;13.03;;;11.50;1.00;;;;;;6183507;23;20410;-81
2022/10/23 05:17:15;;;;;;;20.03;13.30;;;11.50;1.00;;;;;;6187838;23;20427;-82
2022/10/23 05:19:49;;;;;;;18.93;13.07;;;11.50;1.00;;;;;;6186211;23;20425;-83
2022/10/23 05:22:20;;;;;;;20.40;13.10;;;11.40;1.00;;;;;;6186342;23;20477;-83
2022/10/23 05:24:50;;;;;;;22.87;14.73;;;11.40;1.00;;;;;;6188135;23;20423;-82
2022/10/23 05:27:17;;;;;;;28.17;14.90;;;11.50;1.00;;;;;;6189966;23;20472;-82
2022/10/23 05:29:49;;;;;;;24.77;15.37;;;11.50;1.00;;;;;;6184633;23;20389;-82
2022/10/23 05:32:18;;;;;;;23.40;13.40;;;11.60;1.00;;;;;;6181206;23;20484;-82
2022/10/23 05:34:48;;;;;;;20.20;12.50;;;11.60;1.00;;;;;;6183405;23;20436;-80
2022/10/23 05:37:19;;;;;;;21.00;14.00;;;11.50;1.00;;;;;;6186828;23;20458;-79
2022/10/23 05:39:54;;;;;;;20.33;12.20;;;11.50;1.00;;;;;;6173302;23;20498;-81
2022/10/23 05:42:28;;;;;;;18.30;12.13;;;11.50;1.00;;;;;;6190494;23;20474;-80
2022/10/23 05:44:58;;;;;;;19.90;13.20;;;11.60;1.00;;;;;;6188296;23;20399;-81
2022/10/23 05:47:33;;;;;;;18.30;12.30;;;11.70;1.00;;;;;;6189007;23;20409;-81
2022/10/23 05:50:00;;;;;;;21.17;13.60;;;11.70;1.00;;;;;;6191250;23;20431;-83
2022/10/23 05:52:27;;;;;;;19.30;14.10;;;11.80;1.00;;;;;;6193557;23;20394;-81
2022/10/23 05:54:57;;;;;;;19.10;13.57;;;11.70;1.00;;;;;;6198639;23;20460;-81
2022/10/23 05:57:31;;;;;;;21.03;14.40;;;11.70;1.00;;;;;;6175679;23;20445;-81
2022/10/23 06:00:01;;;;;;;18.67;14.27;;;11.60;1.00;;;;;;6191107;23;20424;-81
2022/10/23 06:02:30;;;;;;;24.10;15.07;;;11.50;1.00;;;;;;6189739;23;20428;-80
2022/10/23 06:04:59;;;;;;;18.13;12.43;;;11.50;1.00;;;;;;6186183;23;20404;-80
2022/10/23 06:07:30;;;;;;;14.47;10.43;;;11.50;1.00;;;;;;6187215;23;20454;-81
2022/10/23 06:10:00;;;;;;;16.90;11.20;;;11.50;1.00;;;;;;6192412;23;20402;-80
2022/10/23 06:12:38;;;;;;;19.03;11.73;;;11.50;1.00;;;;;;6178602;23;20387;-79
2022/10/23 06:15:11;;;;;;;18.43;12.13;;;11.60;1.00;;;;;;6185072;23;20398;-82
2022/10/23 06:17:38;;;;;;;16.30;11.90;;;11.60;1.00;;;;;;6187078;23;20396;-83
2022/10/23 06:20:17;;;;;;;17.67;12.13;;;11.60;1.00;;;;;;6192015;23;20433;-82
2022/10/23 06:22:49;;;;;;;17.63;12.63;;;11.60;1.00;;;;;;6173353;23;20463;-82
2022/10/23 06:25:32;;;;;;;19.80;12.60;;;11.50;1.00;;;;;;6185469;23;20426;-84
2022/10/23 06:28:01;;;;;;;19.30;12.03;;;11.60;1.00;;;;;;6185721;23;20416;-84
2022/10/23 06:30:28;;;;;;;20.97;12.63;;;11.60;1.00;;;;;;6173898;23;20397;-80
2022/10/23 06:32:55;;;;;;;26.97;17.00;;;11.60;1.00;;;;;;6164670;23;20416;-82
2022/10/23 06:35:21;;;;;;;31.50;19.40;;;11.60;1.00;;;;;;6177236;23;20494;-81
2022/10/23 06:37:48;;;;;;;28.83;17.83;;;11.60;1.00;;;;;;6180261;23;20496;-80
2022/10/23 06:40:28;;;;;;;25.20;15.07;;;11.60;1.00;;;;;;6178575;23;20445;-80
2022/10/23 06:42:58;;;;;;;26.10;16.20;;;11.70;1.00;;;;;;6163383;23;21001;-81
2022/10/23 06:45:28;;;;;;;22.07;14.27;;;11.90;1.00;;;;;;6153136;23;20509;-80
2022/10/23 06:47:55;;;;;;;25.33;15.67;;;11.90;1.00;;;;;;6183301;23;20431;-81
2022/10/23 06:50:30;;;;;;;21.20;13.77;;;11.80;1.00;;;;;;6175548;23;20820;-81
2022/10/23 06:52:59;;;;;;;20.63;14.07;;;11.90;1.00;;;;;;6160115;23;20812;-81
2022/10/23 06:55:29;;;;;;;18.60;13.70;;;12.10;1.00;;;;;;6171817;23;20462;-81
2022/10/23 06:57:59;;;;;;;18.30;11.80;;;12.20;1.00;;;;;;6172140;23;20393;-82
2022/10/23 07:00:27;;;;;;;19.83;12.80;;;12.20;1.00;;;;;;6199717;23;21500;-80
2022/10/23 07:02:54;;;;;;;17.97;10.97;;;12.30;1.00;;;;;;6141899;23;21027;-81
2022/10/23 07:05:27;;;;;;;18.20;12.80;;;12.30;1.00;;;;;;6144374;23;20516;-81
2022/10/23 07:08:08;;;;;;;17.10;11.70;;;12.30;1.00;;;;;;6154468;23;20931;-80
2022/10/23 07:10:49;;;;;;;19.80;14.27;;;12.40;1.00;;;;;;6152712;23;20444;-82
2022/10/23 07:13:21;;;;;;;18.63;13.30;;;12.40;1.00;;;;;;6196169;23;20451;-80
2022/10/23 07:15:49;;;;;;;19.70;14.13;;;12.50;1.00;;;;;;6145249;23;20411;-81
2022/10/23 07:18:16;;;;;;;21.80;14.80;;;12.50;1.00;;;;;;6175443;23;20426;-81
2022/10/23 07:20:58;;;;;;;23.73;16.30;;;12.50;1.00;;;;;;6196062;23;20931;-82
2022/10/23 07:23:28;;;;;;;23.47;16.30;;;12.50;1.00;;;;;;6147440;23;20416;-81
2022/10/23 07:26:07;;;;;;;28.03;18.83;;;12.70;1.00;;;;;;6172056;23;20401;-81
2022/10/23 07:28:36;;;;;;;22.30;17.00;;;12.80;1.00;;;;;;6198409;23;20825;-82
2022/10/23 07:31:08;;;;;;;22.20;17.30;;;13.00;1.00;;;;;;6182602;23;20417;-82
2022/10/23 07:33:37;;;;;;;23.57;17.40;;;13.20;1.00;;;;;;6181835;23;20493;-79
2022/10/23 07:36:10;;;;;;;17.50;13.73;;;13.30;1.00;;;;;;6172698;23;20420;-80
2022/10/23 07:38:40;;;;;;;18.67;14.77;;;13.40;1.00;;;;;;6198436;23;20422;-84
2022/10/23 07:41:08;;;;;;;21.00;16.10;;;13.50;1.00;;;;;;6185774;23;20409;-79
2022/10/23 07:43:46;;;;;;;17.77;14.40;;;13.60;1.00;;;;;;6184998;23;20456;-82
2022/10/23 07:46:17;;;;;;;20.40;12.87;;;13.80;1.00;;;;;;6189007;23;20414;-80
2022/10/23 07:48:48;;;;;;;19.10;13.87;;;13.90;1.00;;;;;;6185684;23;20404;-81
2022/10/23 07:51:18;;;;;;;15.40;12.37;;;13.90;1.00;;;;;;6185538;23;20445;-82
2022/10/23 07:53:49;;;;;;;19.37;13.80;;;14.00;1.00;;;;;;6178526;23;20393;-78
2022/10/23 07:56:20;;;;;;;17.50;12.80;;;14.10;1.00;;;;;;6187945;23;20912;-83
2022/10/23 07:58:52;;;;;;;17.40;13.63;;;14.10;1.00;;;;;;6139292;23;20385;-82
2022/10/23 08:01:30;;;;;;;16.83;12.20;;;14.20;1.00;;;;;;6184038;23;20452;-83
2022/10/23 08:03:59;;;;;;;16.73;12.33;;;14.40;1.00;;;;;;6166216;23;20427;-83
2022/10/23 08:06:28;;;;;;;19.10;12.63;;;14.50;1.00;;;;;;6166309;23;20516;-80
2022/10/23 08:08:59;;;;;;;16.23;12.87;;;14.60;1.00;;;;;;6184647;23;20820;-81
2022/10/23 08:11:29;;;;;;;19.87;12.40;;;14.60;1.00;;;;;;6184759;23;20919;-80
2022/10/23 08:13:58;;;;;;;13.77;10.83;;;14.70;1.00;;;;;;6184681;23;21493;-81
2022/10/23 08:16:28;;;;;;;13.77;12.20;;;14.60;1.00;;;;;;6188675;23;20448;-79
2022/10/23 08:18:58;;;;;;;14.40;11.40;;;14.70;1.00;;;;;;6176375;23;20560;-79
2022/10/23 08:21:29;;;;;;;16.70;12.53;;;15.00;1.00;;;;;;6189170;23;20429;-81
2022/10/23 08:24:00;;;;;;;16.50;12.00;;;15.50;1.00;;;;;;6162755;23;20417;-81
2022/10/23 08:26:31;;;;;;;13.57;10.47;;;15.80;1.00;;;;;;6200609;23;20397;-80
2022/10/23 08:29:00;;;;;;;14.60;10.23;;;16.30;1.00;;;;;;6186358;23;20392;-82
2022/10/23 08:31:37;;;;;;;12.53;10.03;;;16.70;1.00;;;;;;6191928;23;20412;-81
2022/10/23 08:34:17;;;;;;;13.37;9.20;;;16.70;1.00;;;;;;6188763;23;20416;-82
2022/10/23 08:36:47;;;;;;;13.43;9.43;;;16.40;1.00;;;;;;6177893;23;20404;-80
2022/10/23 08:39:23;;;;;;;12.53;9.30;;;16.20;1.00;;;;;;6178210;23;20450;-79
2022/10/23 08:41:52;;;;;;;12.83;10.13;;;16.10;1.00;;;;;;6187840;23;20438;-79
2022/10/23 08:44:31;;;;;;;15.70;9.60;;;16.10;1.00;;;;;;6171648;23;20440;-80
2022/10/23 08:47:11;;;;;;;11.83;8.70;;;16.10;1.00;;;;;;6186505;23;20810;-80
2022/10/23 08:49:57;;;;;;;12.77;8.80;;;16.10;1.00;;;;;;6165935;23;20520;-79
2022/10/23 08:52:39;;;;;;;12.57;8.90;;;16.30;1.00;;;;;;6168073;23;20395;-82
2022/10/23 08:55:16;;;;;;;12.50;8.50;;;16.30;1.00;;;;;;6180672;23;20383;-82
2022/10/23 08:57:55;;;;;;;11.23;7.97;;;16.40;1.00;;;;;;6180279;23;20505;-82
2022/10/23 09:00:28;;;;;;;13.10;8.30;;;16.60;1.00;;;;;;6179381;23;20407;-79
2022/10/23 09:03:02;;;;;;;12.70;8.40;;;17.10;1.00;;;;;;6182951;23;20461;-78
2022/10/23 09:05:32;;;;;;;10.53;7.63;;;17.00;1.00;;;;;;6182868;23;20918;-81
2022/10/23 09:08:15;;;;;;;12.10;7.70;;;17.00;1.00;;;;;;6171971;23;20427;-80
2022/10/23 09:11:02;;;;;;;11.63;6.73;;;17.00;1.00;;;;;;6187044;23;20535;-83
2022/10/23 09:13:49;;;;;;;14.23;6.73;;;17.00;1.00;;;;;;6187446;23;20500;-82
2022/10/23 09:16:32;;;;;;;10.90;7.10;;;17.30;1.00;;;;;;6183617;23;20404;-82
2022/10/23 09:19:00;;;;;;;11.37;6.87;;;17.80;1.00;;;;;;6186738;23;20953;-82
2022/10/23 09:21:28;;;;;;;11.97;6.70;;;18.30;1.00;;;;;;6187832;23;21224;-82
2022/10/23 09:24:01;;;;;;;12.40;6.50;;;18.60;1.00;;;;;;6187814;23;20408;-81
2022/10/23 09:26:28;;;;;;;11.00;7.53;;;18.70;1.00;;;;;;6168809;23;20398;-80
2022/10/23 09:29:21;;;;;;;10.50;6.40;;;18.70;1.00;;;;;;6184602;23;20400;-78
2022/10/23 09:31:50;;;;;;;10.77;6.73;;;18.70;1.00;;;;;;6161663;23;20416;-82
2022/10/23 09:34:21;;;;;;;11.23;6.33;;;18.60;1.00;;;;;;6204223;23;20434;-82
2022/10/23 09:36:56;;;;;;;11.57;6.37;;;18.50;1.00;;;;;;6176557;23;22555;-78
2022/10/23 09:39:27;;;;;;;11.00;6.80;;;18.70;1.00;;;;;;6183817;23;20495;-81
2022/10/23 09:42:01;;;;;;;11.00;6.50;;;18.80;1.00;;;;;;6183190;23;20444;-78
2022/10/23 09:44:32;;;;;;;10.00;6.27;;;18.70;1.00;;;;;;6189475;23;20396;-82
2022/10/23 09:47:10;;;;;;;10.30;6.30;;;18.80;1.00;;;;;;6181139;23;20394;-83
2022/10/23 09:49:40;;;;;;;11.70;6.90;;;19.10;1.00;;;;;;6184398;23;20406;-82
2022/10/23 09:52:25;;;;;;;11.13;6.20;;;19.60;1.00;;;;;;6190218;23;20492;-82
2022/10/23 09:54:56;;;;;;;10.83;5.73;;;20.00;1.00;;;;;;6169286;23;20456;-82
2022/10/23 09:57:28;;;;;;;10.53;5.33;;;20.00;1.00;;;;;;6183260;23;20418;-80
2022/10/23 09:59:59;;;;;;;8.93;5.07;;;19.60;1.00;;;;;;6178513;23;20394;-82
2022/10/23 10:02:36;;;;;;;8.43;5.07;;;19.50;1.00;;;;;;6183973;23;20916;-83
2022/10/23 10:05:25;;;;;;;10.47;6.20;;;19.60;1.00;;;;;;6153188;23;20831;-84
2022/10/23 10:07:58;;;;;;;10.13;5.13;;;19.90;1.00;;;;;;6183023;23;20413;-82
2022/10/23 10:10:30;;;;;;;11.97;5.17;;;19.80;1.00;;;;;;6183795;23;20402;-82
2022/10/23 10:13:05;;;;;;;10.27;5.10;;;19.70;1.00;;;;;;6180549;23;20439;-81
2022/10/23 10:15:38;;;;;;;10.80;4.70;;;19.90;1.00;;;;;;6164046;23;20409;-82
2022/10/23 10:18:19;;;;;;;8.57;4.97;;;19.90;1.00;;;;;;6154030;23;20397;-82
2022/10/23 10:21:14;;;;;;;10.70;5.60;;;19.80;1.00;;;;;;6184430;23;20402;-82
2022/10/23 10:23:47;;;;;;;10.03;3.73;;;20.00;1.00;;;;;;6182295;23;20396;-84
2022/10/23 10:26:24;;;;;;;10.20;4.50;;;20.60;1.00;;;;;;6180431;23;20438;-83
2022/10/23 10:29:16;;;;;;;10.60;3.83;;;21.10;1.00;;;;;;6184543;23;20452;-81
2022/10/23 10:31:54;;;;;;;8.87;3.83;;;21.40;1.00;;;;;;6182883;23;21110;-82
2022/10/23 10:34:29;;;;;;;10.50;5.17;;;21.90;1.00;;;;;;6178351;23;20439;-82
2022/10/23 10:37:07;;;;;;;8.47;4.40;;;22.50;1.00;;;;;;6186326;23;20401;-81
2022/10/23 10:39:43;;;;;;;9.40;4.27;;;23.00;1.00;;;;;;6141726;23;20997;-82
2022/10/23 10:42:35;;;;;;;9.30;4.07;;;23.10;1.00;;;;;;6188781;23;20441;-82
2022/10/23 10:45:23;;;;;;;7.33;3.63;;;23.80;1.00;;;;;;6181243;23;20387;-81
2022/10/23 10:48:07;;;;;;;8.40;4.60;;;24.10;1.00;;;;;;6164295;23;20506;-81
2022/10/23 10:50:43;;;;;;;7.70;4.03;;;24.20;1.00;;;;;;6183865;23;20427;-82
2022/10/23 10:53:19;;;;;;;8.50;4.77;;;24.70;1.00;;;;;;6168024;23;20401;-82
2022/10/23 10:55:51;;;;;;;8.60;4.10;;;24.80;1.00;;;;;;6173284;23;20488;-81
2022/10/23 10:58:23;;;;;;;8.63;4.60;;;24.40;1.00;;;;;;6189116;23;20431;-80
2022/10/23 11:01:00;;;;;;;8.60;4.00;;;23.90;1.00;;;;;;6165062;23;20473;-83
2022/10/23 11:03:37;;;;;;;8.27;4.00;;;23.80;1.00;;;;;;6180868;23;20522;-82
2022/10/23 11:06:13;;;;;;;7.73;4.60;;;24.30;1.00;;;;;;6187595;23;20437;-82
2022/10/23 11:08:42;;;;;;;9.17;4.73;;;24.60;1.00;;;;;;6182605;23;20447;-81
2022/10/23 11:11:16;;;;;;;8.43;4.80;;;24.70;1.00;;;;;;6182443;23;20422;-84
2022/10/23 11:13:44;;;;;;;9.37;4.43;;;24.90;1.00;;;;;;6183970;23;20404;-82
2022/10/23 11:16:20;;;;;;;9.83;4.90;;;24.90;1.00;;;;;;6186953;23;20420;-82
2022/10/23 11:18:59;;;;;;;8.07;4.17;;;24.20;1.00;;;;;;6179335;23;20510;-80
2022/10/23 11:21:34;;;;;;;8.73;4.87;;;23.90;1.00;;;;;;6177348;23;20433;-81
2022/10/23 11:24:38;;;;;;;9.13;4.53;;;23.60;1.00;;;;;;6165177;23;20496;-80
2022/10/23 11:27:23;;;;;;;10.47;4.53;;;23.00;1.00;;;;;;6074023;23;20419;-81
2022/10/23 11:30:22;;;;;;;7.70;3.90;;;23.40;1.00;;;;;;6159692;23;20496;-83
2022/10/23 11:33:12;;;;;;;11.37;4.13;;;24.60;1.00;;;;;;6195471;23;20417;-82
2022/10/23 11:35:59;;;;;;;10.73;4.17;;;25.50;1.00;;;;;;6179121;23;20486;-82
2022/10/23 11:38:33;;;;;;;8.20;3.60;;;26.50;1.00;;;;;;6196603;23;20429;-81
2022/10/23 11:41:02;;;;;;;7.57;3.03;;;26.70;1.00;;;;;;6182205;23;20531;-81
2022/10/23 11:43:33;;;;;;;8.80;3.50;;;26.80;1.00;;;;;;6181273;23;20762;-81
2022/10/23 11:46:12;;;;;;;8.27;3.60;;;27.30;1.00;;;;;;6177871;23;20508;-82
2022/10/23 11:48:42;;;;;;;11.13;3.67;;;26.80;1.00;;;;;;6180805;23;20422;-82
2022/10/23 11:51:27;;;;;;;6.87;2.87;;;26.20;1.00;;;;;;6167413;23;20401;-83
2022/10/23 11:54:23;;;;;;;6.80;2.77;;;26.30;1.00;;;;;;6192065;23;20497;-83
2022/10/23 11:57:09;;;;;;;7.90;3.17;;;27.00;1.00;;;;;;6180594;23;20410;-83
2022/10/23 11:59:50;;;;;;;7.80;3.10;;;27.20;1.00;;;;;;6181301;23;20417;-83
2022/10/23 12:02:32;;;;;;;8.40;4.17;;;27.40;1.00;;;;;;6176938;23;20441;-82
2022/10/23 12:05:04;;;;;;;6.93;2.70;;;27.70;1.00;;;;;;6180866;23;20429;-83
2022/10/23 12:07:34;;;;;;;7.20;3.77;;;27.80;1.00;;;;;;6181641;23;20909;-82
2022/10/23 12:10:06;;;;;;;7.23;2.80;;;27.80;1.00;;;;;;6174773;23;20431;-82
2022/10/23 12:12:39;;;;;;;6.60;2.67;;;27.90;1.00;;;;;;6165314;23;20422;-82
2022/10/23 12:15:22;;;;;;;7.23;2.80;;;27.60;1.00;;;;;;6181662;23;20521;-82
2022/10/23 12:17:50;;;;;;;6.50;2.80;;;27.00;1.00;;;;;;6177374;23;20414;-82
2022/10/23 12:20:26;;;;;;;7.20;2.60;;;26.30;1.00;;;;;;6175514;23;20494;-82
2022/10/23 12:23:18;;;;;;;8.53;2.97;;;26.20;1.00;;;;;;6183486;23;21141;-81
2022/10/23 12:26:09;;;;;;;6.70;2.53;;;25.60;1.00;;;;;;6178367;23;20498;-81
2022/10/23 12:28:44;;;;;;;8.27;3.07;;;25.10;1.00;;;;;;6175948;23;20439;-82
2022/10/23 12:31:25;;;;;;;7.43;2.70;;;24.30;1.00;;;;;;6182349;23;20817;-83
2022/10/23 12:34:03;;;;;;;7.83;3.03;;;23.70;1.00;;;;;;6175991;23;20409;-80
2022/10/23 12:36:53;;;;;;;6.60;2.57;;;23.50;1.00;;;;;;6177108;23;20492;-82
2022/10/23 12:39:40;;;;;;;8.90;3.07;;;23.40;1.00;;;;;;6181470;23;20477;-82
2022/10/23 12:42:19;;;;;;;7.80;4.00;;;23.30;1.00;;;;;;6180157;23;20502;-82
2022/10/23 12:44:57;;;;;;;8.40;3.23;;;23.10;1.00;;;;;;6175956;23;20526;-83
2022/10/23 12:47:24;;;;;;;8.87;2.80;;;22.90;1.00;;;;;;6177197;23;20427;-82
2022/10/23 12:49:51;;;;;;;7.57;3.03;;;22.70;1.00;;;;;;6179480;23;20417;-82
2022/10/23 12:52:20;;;;;;;6.70;2.60;;;22.40;1.00;;;;;;6180126;23;20777;-84
2022/10/23 12:54:49;;;;;;;7.83;2.73;;;22.10;1.00;;;;;;6173031;23;20436;-81
2022/10/23 12:57:22;;;;;;;12.30;2.90;;;21.90;1.00;;;;;;6173800;23;20794;-81
2022/10/23 12:59:51;;;;;;;7.03;2.70;;;21.80;1.00;;;;;;6177311;23;20425;-81
2022/10/23 13:02:24;;;;;;;10.10;2.83;;;21.60;1.00;;;;;;6180155;23;21136;-83
2022/10/23 13:04:53;;;;;;;8.00;3.10;;;21.50;1.00;;;;;;6175893;23;20433;-82
2022/10/23 13:07:25;;;;;;;7.03;3.03;;;21.50;1.00;;;;;;6174861;23;20463;-81
2022/10/23 13:09:52;;;;;;;7.40;3.00;;;21.50;1.00;;;;;;6167811;23;20411;-82
2022/10/23 13:12:26;;;;;;;7.70;2.60;;;21.30;1.00;;;;;;6179430;23;20499;-81
2022/10/23 13:15:02;;;;;;;9.80;3.00;;;21.30;1.00;;;;;;6174813;23;21285;-82
2022/10/23 13:17:37;;;;;;;6.87;2.57;;;21.10;1.00;;;;;;6174974;23;20736;-81
2022/10/23 13:20:22;;;;;;;8.00;2.40;;;21.10;1.00;;;;;;6181908;23;20425;-81